General Aviation Weather

Text Reports

Enter one or more of the following location identifiers separated by a space:

Zip Code, Four-Character ICAO or Three-Character IATA airport codes.

METAR - Aviation Routine Weather Report
KMVL - Morrisville, Vermont
Updated at 7:54 AM GMT on May 24, 2015 (3:54 AM EDT):
METAR KMVL 240754Z AUTO 21009KT 10SM CLR 14/M02 A3014 RMK AO2 SLP208 T01391022 TSNO
TAF - Terminal Area Forecast
KMVL - Morrisville, Vermont
Updated at 7:54 AM GMT on May 24, 2015 (3:54 AM EDT):
No TAF is currently available for this location.
Decoded:
No decoded TAF is available.
PIREP - Pilot Weather Report
KMVL - Morrisville, Vermont
Updated at 7:54 AM GMT on May 24, 2015 (3:54 AM EDT):
No PIREP is currently available for this location.
AIRMET - Airmens Meteorological Information
KMVL - Morrisville, Vermont
Updated at 7:54 AM GMT on May 24, 2015 (3:54 AM EDT):
No AIRMET is currently available for this location.
SIGMET - Significant Meteorological Information
KMVL - Morrisville, Vermont
Updated at 7:54 AM GMT on May 24, 2015 (3:54 AM EDT):
No SIGMET is currently available for this location.
NOTAM - Notice to Airmen
KMVL - Morrisville, Vermont
Updated at 7:54 AM GMT on May 24, 2015 (3:54 AM EDT):
No NOTAM is currently available for this location.
Forecast Area
KMVL - Morrisville, Vermont
Updated at 7:54 AM GMT on May 24, 2015 (3:54 AM EDT):
No NOTAM is currently available for this location.
Aviation Weather Maps